createdAt,value
2022-11-13T00:02:07.678Z,9.10
2022-11-13T00:04:52.629Z,7.72
2022-11-13T00:07:37.847Z,8.48
2022-11-13T00:10:23.509Z,9.00
2022-11-13T00:13:08.852Z,9.07
2022-11-13T00:16:05.680Z,9.75
2022-11-13T00:18:50.818Z,16.63
2022-11-13T00:21:36.069Z,14.68
2022-11-13T00:24:21.461Z,8.98
2022-11-13T00:27:06.865Z,7.68
2022-11-13T00:29:52.159Z,7.05
2022-11-13T00:32:37.892Z,7.32
2022-11-13T00:35:23.338Z,8.52
2022-11-13T00:38:08.887Z,9.00
2022-11-13T00:40:54.014Z,8.43
2022-11-13T00:43:39.907Z,9.75
2022-11-13T00:46:25.052Z,8.45
2022-11-13T00:49:10.408Z,7.10
2022-11-13T00:51:55.618Z,6.82
2022-11-13T00:54:41.003Z,6.13
2022-11-13T00:57:26.221Z,6.47
2022-11-13T01:00:12.139Z,6.65
2022-11-13T01:03:01.092Z,6.57
2022-11-13T01:05:47.076Z,6.60
2022-11-13T01:08:32.229Z,6.28
2022-11-13T01:11:19.532Z,6.90
2022-11-13T01:14:04.644Z,7.25
2022-11-13T01:16:50.027Z,7.45
2022-11-13T01:19:35.361Z,7.03
2022-11-13T01:22:20.962Z,6.80
2022-11-13T01:25:06.971Z,7.25
2022-11-13T01:27:52.308Z,6.70
2022-11-13T01:30:39.166Z,6.03
2022-11-13T01:33:24.382Z,6.15
2022-11-13T01:36:16.311Z,6.35
2022-11-13T01:39:01.782Z,5.60
2022-11-13T01:41:46.836Z,6.13
2022-11-13T01:44:53.271Z,5.70
2022-11-13T01:47:38.620Z,5.72
2022-11-13T01:50:23.712Z,5.57
2022-11-13T01:53:09.079Z,5.57
2022-11-13T01:55:54.339Z,5.38
2022-11-13T01:58:41.116Z,5.60
2022-11-13T02:01:26.668Z,5.70
2022-11-13T02:04:12.365Z,5.63
2022-11-13T02:07:00.878Z,5.65
2022-11-13T02:09:51.915Z,5.77
2022-11-13T02:12:42.064Z,5.70
2022-11-13T02:15:32.108Z,6.50
2022-11-13T02:18:21.300Z,6.57
2022-11-13T02:21:51.220Z,7.03
2022-11-13T02:24:45.572Z,8.03
2022-11-13T02:27:37.973Z,7.80
2022-11-13T02:30:29.937Z,7.70
2022-11-13T02:33:25.570Z,7.78
2022-11-13T02:36:12.134Z,6.88
2022-11-13T02:39:01.449Z,6.90
2022-11-13T02:41:46.852Z,7.07
2022-11-13T02:44:32.021Z,7.03
2022-11-13T02:47:17.512Z,6.57
2022-11-13T02:50:03.911Z,5.80
2022-11-13T02:52:49.462Z,5.97
2022-11-13T02:55:34.823Z,5.80
2022-11-13T02:58:20.134Z,5.47
2022-11-13T03:01:05.907Z,7.18
2022-11-13T03:03:58.669Z,5.70
2022-11-13T03:06:43.764Z,6.72
2022-11-13T03:09:29.241Z,6.50
2022-11-13T03:12:14.635Z,6.80
2022-11-13T03:14:59.743Z,7.15
2022-11-13T03:17:44.927Z,8.75
2022-11-13T03:20:30.517Z,8.77
2022-11-13T03:23:15.893Z,10.50
2022-11-13T03:26:09.119Z,10.00
2022-11-13T03:28:54.738Z,7.53
2022-11-13T03:31:39.954Z,6.53
2022-11-13T03:34:25.904Z,10.55
2022-11-13T03:37:11.358Z,10.52
2022-11-13T03:39:56.548Z,8.93
2022-11-13T03:42:41.666Z,9.50
2022-11-13T03:45:27.053Z,10.00
2022-11-13T03:48:13.972Z,9.13
2022-11-13T03:50:59.548Z,10.40
2022-11-13T03:53:44.865Z,9.55
2022-11-13T03:56:30.294Z,10.48
2022-11-13T03:59:15.286Z,9.60
2022-11-13T04:02:00.793Z,10.20
2022-11-13T04:04:45.864Z,9.55
2022-11-13T04:07:31.176Z,8.60
2022-11-13T04:10:17.100Z,7.47
2022-11-13T04:13:02.253Z,7.00
2022-11-13T04:15:47.818Z,6.47
2022-11-13T04:18:33.193Z,7.57
2022-11-13T04:21:18.605Z,5.97
2022-11-13T04:24:04.067Z,9.40
2022-11-13T04:26:49.484Z,7.80
2022-11-13T04:29:34.947Z,7.90
2022-11-13T04:32:20.326Z,6.00
2022-11-13T04:35:07.050Z,5.70
2022-11-13T04:37:52.690Z,5.40
2022-11-13T04:40:38.628Z,5.40
2022-11-13T04:43:23.991Z,5.30
2022-11-13T04:46:09.305Z,5.00
2022-11-13T04:48:54.559Z,5.18
2022-11-13T04:51:39.787Z,5.50
2022-11-13T04:54:28.722Z,5.05
2022-11-13T04:57:14.493Z,7.32
2022-11-13T04:59:59.815Z,7.00
2022-11-13T05:02:45.233Z,6.72
2022-11-13T05:05:30.607Z,7.47
2022-11-13T05:08:15.846Z,6.00
2022-11-13T05:11:01.570Z,5.78
2022-11-13T05:13:46.588Z,5.40
2022-11-13T05:16:31.766Z,6.10
2022-11-13T05:19:17.273Z,6.00
2022-11-13T05:22:03.412Z,5.97
2022-11-13T05:24:48.585Z,4.90
2022-11-13T05:27:33.918Z,4.70
2022-11-13T05:30:19.203Z,3.95
2022-11-13T05:33:04.274Z,5.53
2022-11-13T05:35:49.663Z,4.50
2022-11-13T05:38:35.662Z,6.33
2022-11-13T05:41:22.131Z,4.57
2022-11-13T05:44:07.587Z,3.47
2022-11-13T05:46:53.073Z,3.67
2022-11-13T05:49:38.448Z,4.22
2022-11-13T05:52:23.817Z,3.90
2022-11-13T05:55:09.311Z,4.20
2022-11-13T05:57:54.810Z,4.40
2022-11-13T06:00:40.176Z,5.27
2022-11-13T06:03:25.661Z,3.83
2022-11-13T06:06:14.626Z,5.83
2022-11-13T06:09:02.201Z,3.93
2022-11-13T06:11:47.447Z,4.25
2022-11-13T06:14:32.716Z,4.32
2022-11-13T06:17:17.962Z,4.37
2022-11-13T06:20:04.552Z,4.60
2022-11-13T06:22:49.899Z,4.68
2022-11-13T06:25:35.485Z,4.13
2022-11-13T06:28:20.577Z,4.60
2022-11-13T06:31:10.921Z,4.03
2022-11-13T06:33:58.186Z,3.53
2022-11-13T06:36:43.593Z,3.67
2022-11-13T06:39:28.912Z,2.92
2022-11-13T06:42:14.047Z,4.43
2022-11-13T06:44:59.163Z,4.45
2022-11-13T06:47:44.201Z,3.97
2022-11-13T06:50:29.398Z,3.80
2022-11-13T06:53:14.842Z,4.13
2022-11-13T06:56:01.540Z,3.97
2022-11-13T06:58:47.096Z,3.90
2022-11-13T07:01:32.209Z,4.40
2022-11-13T07:04:17.414Z,4.63
2022-11-13T07:07:04.064Z,4.50
2022-11-13T07:09:49.654Z,5.40
2022-11-13T07:12:35.234Z,7.53
2022-11-13T07:15:20.640Z,6.13
2022-11-13T07:18:06.936Z,8.07
2022-11-13T07:20:52.000Z,6.82
2022-11-13T07:23:42.809Z,4.40
2022-11-13T07:26:28.266Z,5.22
2022-11-13T07:29:13.599Z,5.95
2022-11-13T07:31:58.785Z,6.65
2022-11-13T07:34:44.277Z,6.27
2022-11-13T07:37:29.278Z,5.28
2022-11-13T07:40:14.436Z,4.60
2022-11-13T07:43:01.590Z,4.50
2022-11-13T07:45:47.040Z,5.00
2022-11-13T07:48:32.543Z,5.00
2022-11-13T07:51:18.359Z,11.93
2022-11-13T07:54:04.003Z,11.48
2022-11-13T07:56:49.063Z,24.15
2022-11-13T07:59:34.655Z,19.17
2022-11-13T08:02:23.628Z,21.20
2022-11-13T08:05:12.043Z,25.15
2022-11-13T08:07:57.427Z,19.98
2022-11-13T08:10:42.964Z,14.13
2022-11-13T08:13:28.368Z,13.80
2022-11-13T08:16:13.408Z,10.68
2022-11-13T08:18:58.623Z,8.13
2022-11-13T08:21:43.726Z,6.65
2022-11-13T08:24:29.218Z,5.57
2022-11-13T08:27:14.331Z,5.45
2022-11-13T08:29:59.921Z,6.35
2022-11-13T08:32:45.518Z,6.57
2022-11-13T08:35:31.376Z,5.88
2022-11-13T08:38:16.469Z,4.63
2022-11-13T08:41:08.652Z,4.65
2022-11-13T08:43:54.722Z,4.60
2022-11-13T08:46:40.521Z,4.10
2022-11-13T08:49:25.731Z,4.63
2022-11-13T08:52:10.964Z,3.85
2022-11-13T08:54:56.616Z,4.35
2022-11-13T08:57:42.042Z,4.38
2022-11-13T09:00:29.102Z,5.25
2022-11-13T09:03:14.338Z,9.68
2022-11-13T09:05:59.652Z,17.55
2022-11-13T09:08:45.382Z,31.38
2022-11-13T09:11:30.744Z,20.13
2022-11-13T09:14:16.330Z,23.48
2022-11-13T09:17:01.697Z,13.15
2022-11-13T09:19:47.446Z,13.80
2022-11-13T09:22:33.897Z,11.57
2022-11-13T09:25:18.948Z,19.33
2022-11-13T09:28:05.371Z,16.10
2022-11-13T09:30:50.699Z,8.50
2022-11-13T09:33:36.049Z,7.00
2022-11-13T09:36:21.687Z,5.50
2022-11-13T09:39:08.336Z,4.38
2022-11-13T09:42:13.720Z,5.30
2022-11-13T09:45:07.239Z,7.40
2022-11-13T09:47:54.787Z,10.07
2022-11-13T09:50:40.847Z,6.78
2022-11-13T09:53:27.369Z,7.22
2022-11-13T09:56:27.884Z,7.10
2022-11-13T09:59:20.717Z,6.20
2022-11-13T10:02:09.016Z,5.25
2022-11-13T10:05:07.122Z,5.32
2022-11-13T10:08:10.607Z,5.30
2022-11-13T10:11:57.194Z,4.63
2022-11-13T10:14:46.253Z,4.13
2022-11-13T10:17:42.792Z,4.40
2022-11-13T10:20:38.320Z,3.65
2022-11-13T10:23:34.194Z,3.92
2022-11-13T10:26:21.804Z,4.25
2022-11-13T10:29:15.800Z,3.90
2022-11-13T10:32:20.551Z,3.90
2022-11-13T10:35:05.720Z,3.95
2022-11-13T10:37:56.934Z,4.35
2022-11-13T10:40:42.443Z,4.28
2022-11-13T10:43:28.013Z,4.28
2022-11-13T10:46:19.675Z,4.07
2022-11-13T10:49:31.537Z,4.18
2022-11-13T10:52:23.088Z,3.55
2022-11-13T10:55:31.732Z,3.80
2022-11-13T10:58:19.316Z,4.10
2022-11-13T11:01:16.358Z,4.07
2022-11-13T11:04:04.985Z,4.15
2022-11-13T11:07:19.848Z,6.93
2022-11-13T11:09:56.979Z,5.72
2022-11-13T11:12:42.924Z,5.43
2022-11-13T11:15:39.845Z,8.45
2022-11-13T11:18:25.454Z,7.18
2022-11-13T11:21:22.470Z,6.10
2022-11-13T11:24:23.597Z,5.68
2022-11-13T11:27:19.629Z,4.88
2022-11-13T11:30:22.826Z,3.53
2022-11-13T11:33:23.147Z,3.00
2022-11-13T11:36:22.842Z,2.83
2022-11-13T11:39:32.564Z,3.15
2022-11-13T11:42:36.246Z,3.58
2022-11-13T11:45:48.103Z,2.75
2022-11-13T11:48:34.251Z,4.82
2022-11-13T11:51:26.801Z,4.30
2022-11-13T11:54:24.557Z,3.88
2022-11-13T11:57:26.841Z,3.50
2022-11-13T12:00:17.881Z,3.35
2022-11-13T12:03:33.189Z,3.08
2022-11-13T12:06:54.539Z,3.28
2022-11-13T12:10:01.458Z,2.70
2022-11-13T12:12:55.586Z,3.47
2022-11-13T12:15:55.379Z,6.28
2022-11-13T12:19:04.097Z,3.83
2022-11-13T12:21:55.601Z,3.10
2022-11-13T12:25:38.711Z,3.85
2022-11-13T12:28:45.520Z,4.20
2022-11-13T12:32:04.747Z,3.30
2022-11-13T12:35:21.980Z,2.70
2022-11-13T12:38:07.376Z,4.50
2022-11-13T12:41:14.667Z,6.18
2022-11-13T12:44:19.736Z,4.45
2022-11-13T12:47:08.623Z,2.50
2022-11-13T12:50:02.490Z,4.38
2022-11-13T12:52:59.776Z,2.42
2022-11-13T12:55:56.717Z,2.80
2022-11-13T13:02:20.804Z,2.60
2022-11-13T13:05:16.100Z,2.85
2022-11-13T13:08:04.951Z,3.00
2022-11-13T13:11:04.578Z,2.85
2022-11-13T13:14:05.179Z,2.65
2022-11-13T13:16:50.762Z,2.85
2022-11-13T13:19:36.289Z,2.45
2022-11-13T13:22:33.867Z,2.50
2022-11-13T13:25:26.919Z,2.28
2022-11-13T13:28:23.670Z,2.15
2022-11-13T13:31:33.778Z,2.30
2022-11-13T13:34:24.894Z,3.47
2022-11-13T13:37:24.957Z,3.40
2022-11-13T13:40:27.979Z,3.00
2022-11-13T13:43:19.080Z,3.08
2022-11-13T13:46:21.901Z,4.22
2022-11-13T13:49:14.399Z,3.50
2022-11-13T13:51:59.389Z,3.33
2022-11-13T13:54:45.465Z,2.97
2022-11-13T13:57:30.965Z,3.17
2022-11-13T14:00:19.047Z,3.53
2022-11-13T14:03:04.929Z,3.40
2022-11-13T14:05:50.840Z,2.97
2022-11-13T14:08:36.215Z,3.17
2022-11-13T14:11:29.444Z,3.08
2022-11-13T14:14:21.433Z,3.63
2022-11-13T14:17:09.772Z,3.30
2022-11-13T14:20:00.550Z,2.50
2022-11-13T14:22:55.194Z,2.50
2022-11-13T14:25:43.643Z,2.53
2022-11-13T14:28:32.687Z,2.78
2022-11-13T14:31:18.336Z,3.53
2022-11-13T14:34:14.244Z,2.65
2022-11-13T14:37:20.536Z,3.10
2022-11-13T14:40:20.461Z,6.88
2022-11-13T14:43:08.099Z,3.45
2022-11-13T14:45:59.472Z,4.63
2022-11-13T14:48:53.965Z,2.80
2022-11-13T14:51:39.748Z,2.75
2022-11-13T14:55:08.006Z,2.72
2022-11-13T14:57:50.137Z,2.70
2022-11-13T15:00:37.257Z,2.92
2022-11-13T15:03:22.621Z,2.67
2022-11-13T15:06:22.758Z,2.90
2022-11-13T15:09:13.580Z,2.38
2022-11-13T15:11:58.988Z,2.60
2022-11-13T15:14:44.951Z,2.70
2022-11-13T15:17:31.006Z,3.08
2022-11-13T15:20:22.659Z,2.83
2022-11-13T15:23:11.865Z,2.83
2022-11-13T15:25:57.630Z,2.55
2022-11-13T15:28:42.849Z,2.72
2022-11-13T15:31:32.761Z,2.67
2022-11-13T15:34:18.290Z,3.25
2022-11-13T15:37:14.176Z,3.47
2022-11-13T15:39:59.824Z,2.65
2022-11-13T15:42:45.789Z,2.72
2022-11-13T15:45:31.022Z,3.60
2022-11-13T15:48:16.475Z,4.97
2022-11-13T15:51:01.777Z,3.40
2022-11-13T15:53:54.592Z,3.50
2022-11-13T15:56:40.691Z,4.75
2022-11-13T15:59:26.095Z,5.75
2022-11-13T16:02:11.194Z,8.55
2022-11-13T16:04:57.384Z,7.15
2022-11-13T16:07:43.209Z,7.03
2022-11-13T16:10:28.596Z,5.15
2022-11-13T16:13:13.859Z,4.78
2022-11-13T16:16:00.414Z,3.90
2022-11-13T16:18:46.479Z,4.68
2022-11-13T16:21:32.254Z,5.47
2022-11-13T16:24:21.100Z,5.22
2022-11-13T16:27:12.477Z,5.50
2022-11-13T16:30:00.015Z,30.05
2022-11-13T16:32:49.630Z,7.88
2022-11-13T16:35:34.935Z,6.15
2022-11-13T16:38:20.026Z,8.13
2022-11-13T16:41:05.748Z,8.15
2022-11-13T16:43:51.143Z,9.80
2022-11-13T16:46:41.663Z,10.88
2022-11-13T16:49:27.199Z,10.75
2022-11-13T16:52:12.607Z,11.57
2022-11-13T16:55:01.060Z,15.18
2022-11-13T16:57:50.837Z,13.73
2022-11-13T17:00:36.337Z,13.95
2022-11-13T17:03:22.487Z,12.38
2022-11-13T17:06:23.208Z,10.98
2022-11-13T17:09:11.336Z,7.85
2022-11-13T17:11:58.592Z,8.68
2022-11-13T17:14:44.120Z,10.57
2022-11-13T17:17:31.466Z,16.00
2022-11-13T17:20:19.160Z,20.27
2022-11-13T17:23:04.641Z,19.02
2022-11-13T17:25:50.110Z,10.05
2022-11-13T17:28:35.468Z,9.85
2022-11-13T17:31:21.580Z,11.00
2022-11-13T17:34:07.119Z,10.00
2022-11-13T17:36:54.779Z,9.90
2022-11-13T17:39:40.151Z,8.48
2022-11-13T17:42:25.782Z,6.78
2022-11-13T17:45:11.179Z,19.60
2022-11-13T17:47:56.255Z,13.63
2022-11-13T17:50:43.017Z,8.10
2022-11-13T17:53:30.429Z,9.10
2022-11-13T17:56:15.982Z,21.80
2022-11-13T17:59:01.283Z,10.25
2022-11-13T18:01:47.910Z,10.02
2022-11-13T18:04:33.220Z,10.98
2022-11-13T18:07:19.991Z,9.57
2022-11-13T18:10:06.811Z,9.32
2022-11-13T18:12:53.050Z,10.25
2022-11-13T18:15:39.810Z,11.23
2022-11-13T18:18:25.192Z,11.05
2022-11-13T18:21:22.983Z,9.02
2022-11-13T18:24:14.702Z,9.90
2022-11-13T18:27:00.145Z,11.35
2022-11-13T18:29:45.578Z,14.48
2022-11-13T18:32:31.003Z,33.90
2022-11-13T18:35:16.361Z,15.20
2022-11-13T18:38:01.957Z,11.63
2022-11-13T18:40:47.498Z,12.57
2022-11-13T18:43:33.416Z,13.27
2022-11-13T18:46:20.286Z,12.90
2022-11-13T18:49:05.803Z,11.38
2022-11-13T18:51:51.268Z,11.10
2022-11-13T18:54:36.615Z,11.20
2022-11-13T18:57:21.643Z,11.27
2022-11-13T19:00:07.936Z,12.10
2022-11-13T19:02:53.331Z,12.75
2022-11-13T19:05:42.934Z,13.57
2022-11-13T19:08:28.309Z,11.35
2022-11-13T19:11:16.917Z,12.57
2022-11-13T19:14:02.619Z,11.05
2022-11-13T19:16:48.062Z,13.15
2022-11-13T19:19:33.603Z,13.35
2022-11-13T19:22:19.151Z,13.95
2022-11-13T19:25:04.635Z,12.95
2022-11-13T19:27:50.300Z,13.23
2022-11-13T19:30:35.418Z,18.30
2022-11-13T19:33:22.619Z,21.65
2022-11-13T19:36:09.895Z,22.05
2022-11-13T19:38:56.173Z,29.38
2022-11-13T19:41:41.268Z,28.27
2022-11-13T19:44:27.377Z,23.05
2022-11-13T19:47:12.837Z,18.05
2022-11-13T19:49:58.554Z,17.55
2022-11-13T19:52:43.760Z,16.60
2022-11-13T19:55:30.314Z,15.63
2022-11-13T19:58:15.723Z,14.88
2022-11-13T20:01:08.766Z,15.45
2022-11-13T20:03:56.550Z,22.35
2022-11-13T20:06:41.624Z,18.67
2022-11-13T20:09:29.278Z,17.10
2022-11-13T20:12:14.603Z,17.58
2022-11-13T20:15:00.468Z,20.05
2022-11-13T20:17:45.715Z,19.90
2022-11-13T20:20:31.126Z,19.13
2022-11-13T20:23:17.060Z,20.27
2022-11-13T20:26:06.539Z,20.00
2022-11-13T20:28:51.995Z,18.63
2022-11-13T20:31:37.239Z,17.63
2022-11-13T20:34:22.728Z,18.02
2022-11-13T20:37:07.882Z,17.15
2022-11-13T20:39:53.331Z,18.13
2022-11-13T20:42:38.687Z,21.67
2022-11-13T20:45:24.277Z,18.30
2022-11-13T20:48:09.904Z,15.63
2022-11-13T20:50:55.326Z,17.30
2022-11-13T20:53:41.678Z,14.73
2022-11-13T20:56:27.193Z,14.45
2022-11-13T20:59:12.362Z,13.35
2022-11-13T21:01:57.741Z,12.57
2022-11-13T21:04:42.943Z,11.82
2022-11-13T21:07:28.637Z,10.93
2022-11-13T21:10:13.861Z,10.55
2022-11-13T21:12:59.381Z,9.90
2022-11-13T21:15:44.717Z,9.52
2022-11-13T21:18:31.064Z,10.27
2022-11-13T21:21:19.346Z,10.65
2022-11-13T21:24:05.159Z,10.52
2022-11-13T21:26:50.542Z,11.15
2022-11-13T21:29:36.042Z,11.00
2022-11-13T21:32:21.312Z,11.10
2022-11-13T21:35:06.764Z,12.23
2022-11-13T21:37:51.990Z,11.15
2022-11-13T21:40:37.199Z,10.48
2022-11-13T21:43:22.720Z,9.13
2022-11-13T21:46:08.749Z,8.63
2022-11-13T21:48:57.146Z,8.13
2022-11-13T21:51:43.614Z,8.80
2022-11-13T21:54:29.099Z,9.55
2022-11-13T21:57:14.747Z,9.57
2022-11-13T22:00:00.156Z,10.35
2022-11-13T22:02:45.677Z,11.90
2022-11-13T22:05:31.005Z,11.88
2022-11-13T22:08:16.488Z,10.65
2022-11-13T22:11:01.986Z,11.50
2022-11-13T22:13:47.768Z,12.35
2022-11-13T22:16:35.027Z,10.23
2022-11-13T22:19:26.538Z,11.02
2022-11-13T22:22:13.137Z,9.48
2022-11-13T22:24:58.521Z,9.90
2022-11-13T22:27:43.662Z,10.88
2022-11-13T22:30:28.778Z,10.38
2022-11-13T22:33:14.170Z,8.93
2022-11-13T22:36:05.498Z,9.68
2022-11-13T22:38:51.289Z,10.32
2022-11-13T22:41:36.942Z,10.40
2022-11-13T22:44:22.238Z,8.82
2022-11-13T22:47:07.359Z,8.00
2022-11-13T22:49:52.838Z,9.38
2022-11-13T22:52:38.069Z,9.50
2022-11-13T22:55:23.423Z,10.25
2022-11-13T22:58:08.962Z,8.85
2022-11-13T23:00:54.443Z,9.63
2022-11-13T23:03:42.180Z,10.73
2022-11-13T23:06:30.760Z,10.70
2022-11-13T23:09:16.201Z,13.48
2022-11-13T23:12:01.603Z,11.77
2022-11-13T23:14:47.437Z,11.68
2022-11-13T23:17:32.586Z,11.68
2022-11-13T23:20:18.410Z,15.00
2022-11-13T23:23:03.748Z,16.23
2022-11-13T23:25:48.830Z,14.70
2022-11-13T23:28:34.572Z,14.63
2022-11-13T23:31:21.438Z,12.50
2022-11-13T23:34:06.906Z,10.83
2022-11-13T23:36:52.250Z,11.27
2022-11-13T23:39:37.697Z,11.80
2022-11-13T23:42:45.795Z,10.38
2022-11-13T23:45:28.489Z,9.95
2022-11-13T23:48:14.145Z,9.70
2022-11-13T23:51:01.619Z,10.45
2022-11-13T23:53:46.916Z,9.23
2022-11-13T23:56:32.366Z,8.73
2022-11-13T23:59:17.951Z,8.40
